Time;durP1;ratioP1;P1;durP2;ratioP2;P2;SDS_P1;SDS_P2;PMS_P1;PMS_P2;Temp;Humidity;BMP_temperature;BMP_pressure;BME280_temperature;BME280_humidity;BME280_pressure;Samples;Min_cycle;Max_cycle;Signal;HPM_P1;HPM_P2
2022/01/02 00:02:20;;;;;;;4.88;2.47;;;13.40;99.00;;;;;;5033005;28;20087;-78
2022/01/02 00:04:49;;;;;;;5.93;2.83;;;13.40;99.00;;;;;;5033291;28;20021;-78
2022/01/02 00:07:16;;;;;;;6.40;2.55;;;13.40;98.90;;;;;;5033073;28;20083;-78
2022/01/02 00:09:50;;;;;;;4.35;2.42;;;13.30;99.00;;;;;;5033473;28;20064;-76
2022/01/02 00:12:23;;;;;;;4.38;2.20;;;13.40;99.00;;;;;;5032615;28;20037;-76
2022/01/02 00:14:51;;;;;;;;;;;13.30;99.00;;;;;;5033496;28;20428;-76
2022/01/02 00:17:21;;;;;;;6.32;2.70;;;13.40;99.10;;;;;;5032437;28;20435;-76
2022/01/02 00:19:52;;;;;;;5.50;2.40;;;13.30;98.90;;;;;;5032773;28;20030;-77
2022/01/02 00:22:22;;;;;;;4.60;2.70;;;13.20;99.00;;;;;;5032489;28;20037;-77
2022/01/02 00:24:49;;;;;;;5.93;2.50;;;13.20;99.10;;;;;;5032610;28;20029;-77
2022/01/02 00:27:15;;;;;;;5.03;2.70;;;13.10;99.20;;;;;;5034003;28;20033;-77
2022/01/02 00:29:42;;;;;;;4.95;2.53;;;13.10;99.50;;;;;;5036422;28;20036;-77
2022/01/02 00:32:09;;;;;;;6.70;3.00;;;13.10;99.20;;;;;;5036311;28;20388;-77
2022/01/02 00:34:39;;;;;;;6.18;2.92;;;13.10;99.20;;;;;;5036502;28;20025;-76
2022/01/02 00:37:06;;;;;;;4.53;2.80;;;13.10;99.30;;;;;;5036186;28;20035;-77
2022/01/02 00:39:32;;;;;;;8.27;3.40;;;13.00;99.40;;;;;;5036217;28;20025;-76
2022/01/02 00:42:05;;;;;;;7.00;3.40;;;13.00;99.40;;;;;;5036439;28;20083;-76
2022/01/02 00:44:49;;;;;;;;;;;13.00;99.50;;;;;;5036993;28;20024;-77
2022/01/02 00:47:25;;;;;;;7.07;2.45;;;13.00;99.50;;;;;;5040668;28;19970;-77
2022/01/02 00:50:09;;;;;;;6.97;3.10;;;13.00;99.50;;;;;;5036201;28;20053;-77
2022/01/02 00:52:43;;;;;;;9.23;2.95;;;13.00;99.60;;;;;;5035706;28;20029;-76
2022/01/02 00:55:14;;;;;;;9.05;3.25;;;13.00;99.50;;;;;;5035782;28;20562;-77
2022/01/02 00:57:42;;;;;;;7.72;3.65;;;13.00;99.60;;;;;;5035918;28;20026;-77
2022/01/02 01:00:08;;;;;;;5.32;2.92;;;13.00;99.80;;;;;;5035814;28;20083;-77
2022/01/02 01:02:56;;;;;;;7.25;2.90;;;12.90;99.80;;;;;;5035341;28;20033;-77
2022/01/02 01:05:31;;;;;;;5.20;2.63;;;12.90;99.90;;;;;;5035904;28;20026;-76
2022/01/02 01:08:08;;;;;;;7.28;3.15;;;12.90;99.90;;;;;;5016583;28;20109;-77
2022/01/02 01:10:39;;;;;;;6.95;2.75;;;12.90;99.90;;;;;;5025199;28;20436;-77
2022/01/02 01:13:08;;;;;;;8.20;2.78;;;12.90;99.90;;;;;;5035568;28;20025;-77
2022/01/02 01:15:35;;;;;;;11.00;3.08;;;12.90;99.90;;;;;;5035207;28;20095;-76
2022/01/02 01:18:03;;;;;;;6.43;3.00;;;13.00;99.90;;;;;;5036035;28;20021;-76
2022/01/02 01:20:34;;;;;;;11.02;3.15;;;12.90;99.90;;;;;;5035266;28;20156;-77
2022/01/02 01:23:00;;;;;;;11.93;3.58;;;12.90;99.90;;;;;;5036049;28;20036;-77
2022/01/02 01:25:25;;;;;;;9.82;3.22;;;12.80;99.90;;;;;;5035441;28;20372;-77
2022/01/02 01:27:53;;;;;;;8.38;3.33;;;12.80;99.90;;;;;;5035858;28;20033;-77
2022/01/02 01:30:21;;;;;;;11.32;3.08;;;12.70;99.90;;;;;;5035381;28;20060;-76
2022/01/02 01:32:47;;;;;;;7.95;3.10;;;12.70;99.90;;;;;;5034531;28;20022;-77
2022/01/02 01:35:14;;;;;;;11.48;3.20;;;12.70;99.90;;;;;;5035559;28;20022;-77
2022/01/02 01:37:40;;;;;;;7.75;3.10;;;12.70;99.90;;;;;;5035275;28;20044;-76
2022/01/02 01:40:08;;;;;;;7.85;3.10;;;12.70;99.90;;;;;;5034306;28;20033;-77
2022/01/02 01:42:37;;;;;;;9.25;3.20;;;12.70;99.90;;;;;;5036613;28;20064;-77
2022/01/02 01:47:45;;;;;;;8.05;3.30;;;12.60;99.90;;;;;;5035310;28;20044;-77
2022/01/02 01:50:11;;;;;;;6.72;3.67;;;12.60;99.90;;;;;;5034797;28;20512;-77
2022/01/02 01:52:37;;;;;;;11.95;3.60;;;12.70;99.90;;;;;;5035079;28;20477;-77
2022/01/02 01:55:04;;;;;;;11.02;3.20;;;12.70;99.90;;;;;;5034638;28;20056;-77
2022/01/02 01:57:30;;;;;;;8.07;3.05;;;12.70;99.90;;;;;;5034291;28;20022;-77
2022/01/02 01:59:56;;;;;;;8.18;3.22;;;12.70;99.90;;;;;;5034815;28;20025;-77
2022/01/02 02:02:23;;;;;;;10.68;3.33;;;12.70;99.90;;;;;;5034167;28;20037;-77
2022/01/02 02:04:48;;;;;;;8.93;3.08;;;12.70;99.90;;;;;;5035113;28;20056;-77
2022/01/02 02:07:15;;;;;;;8.98;3.38;;;12.70;99.90;;;;;;5034686;28;20026;-77
2022/01/02 02:12:14;;;;;;;6.85;3.30;;;12.70;99.90;;;;;;5034481;28;20018;-78
2022/01/02 02:14:40;;;;;;;10.95;3.13;;;12.70;99.90;;;;;;5034287;28;20388;-77
2022/01/02 02:17:06;;;;;;;11.32;3.10;;;12.80;99.90;;;;;;5034628;28;20044;-78
2022/01/02 02:19:32;;;;;;;7.88;3.10;;;12.70;99.90;;;;;;5034553;28;20021;-78
2022/01/02 02:21:58;;;;;;;9.65;3.10;;;12.60;99.90;;;;;;5034698;28;20362;-78
2022/01/02 02:24:23;;;;;;;9.38;3.28;;;12.60;99.90;;;;;;5034382;28;20021;-78
2022/01/02 02:26:49;;;;;;;9.57;3.28;;;12.70;99.90;;;;;;5034231;28;20040;-78
2022/01/02 02:29:15;;;;;;;7.57;2.80;;;12.70;99.90;;;;;;5034808;28;20033;-78
2022/01/02 02:31:43;;;;;;;11.07;3.00;;;12.70;99.90;;;;;;5033800;28;20354;-77
2022/01/02 02:34:09;;;;;;;10.98;2.92;;;12.80;99.90;;;;;;5034747;28;20082;-77
2022/01/02 02:36:34;;;;;;;11.98;3.38;;;12.80;99.90;;;;;;5034508;28;20530;-77
2022/01/02 02:39:00;;;;;;;7.03;3.08;;;12.80;99.90;;;;;;5038404;28;20029;-78
2022/01/02 02:41:31;;;;;;;11.00;2.90;;;12.70;99.90;;;;;;5038107;28;20044;-77
2022/01/02 02:44:05;;;;;;;9.77;2.65;;;12.80;99.90;;;;;;5034575;28;20025;-77
2022/01/02 02:49:15;;;;;;;11.68;2.95;;;12.80;99.90;;;;;;5034083;28;20591;-77
2022/01/02 02:54:08;;;;;;;13.70;3.00;;;12.80;99.90;;;;;;5034145;28;20049;-77
2022/01/02 02:56:43;;;;;;;13.00;3.25;;;12.80;99.90;;;;;;5033651;28;20104;-77
2022/01/02 02:59:11;;;;;;;12.27;3.13;;;12.80;99.90;;;;;;5033911;28;20036;-78
2022/01/02 03:01:37;;;;;;;8.00;2.75;;;12.80;99.90;;;;;;5033644;28;20033;-77
2022/01/02 03:04:03;;;;;;;11.05;2.83;;;12.80;99.90;;;;;;5033811;28;20029;-77
2022/01/02 03:06:29;;;;;;;11.90;3.00;;;12.90;99.90;;;;;;5033568;28;20036;-77
2022/01/02 03:08:59;;;;;;;9.88;2.95;;;12.90;99.90;;;;;;5033709;28;20473;-77
2022/01/02 03:11:25;;;;;;;15.40;2.80;;;12.90;99.90;;;;;;5033647;28;20036;-77
2022/01/02 03:13:52;;;;;;;15.02;3.00;;;12.90;99.90;;;;;;5033748;28;20396;-77
2022/01/02 03:16:18;;;;;;;12.55;2.67;;;13.00;99.90;;;;;;5032903;28;20095;-77
2022/01/02 03:18:44;;;;;;;11.55;3.58;;;13.00;99.90;;;;;;5033615;28;20034;-77
2022/01/02 03:21:11;;;;;;;9.45;2.95;;;13.00;99.90;;;;;;5033198;28;20033;-78
2022/01/02 03:23:37;;;;;;;10.88;2.40;;;13.00;99.90;;;;;;5033973;28;20022;-78
2022/01/02 03:26:03;;;;;;;10.35;3.05;;;13.00;99.90;;;;;;5032949;28;20036;-77
2022/01/02 03:28:29;;;;;;;9.60;2.90;;;13.00;99.90;;;;;;5033552;28;20030;-77
2022/01/02 03:30:55;;;;;;;12.10;2.83;;;13.00;99.90;;;;;;5033174;28;20032;-77
2022/01/02 03:33:20;;;;;;;13.50;2.72;;;13.00;99.90;;;;;;5033185;28;20025;-77
2022/01/02 03:35:46;;;;;;;13.25;3.05;;;13.00;99.90;;;;;;5034141;28;20032;-77
2022/01/02 03:38:12;;;;;;;11.18;2.53;;;13.00;99.90;;;;;;5033639;28;20040;-77
2022/01/02 03:40:38;;;;;;;13.77;2.83;;;13.10;99.90;;;;;;5032700;28;20025;-77
2022/01/02 03:43:05;;;;;;;12.70;2.42;;;13.00;99.90;;;;;;5033086;28;20037;-78
2022/01/02 03:45:31;;;;;;;11.55;2.50;;;13.00;99.90;;;;;;5032655;28;20017;-77
2022/01/02 03:47:57;;;;;;;13.20;2.60;;;13.10;99.90;;;;;;5033065;28;20544;-78
2022/01/02 03:50:22;;;;;;;9.50;2.45;;;13.10;99.90;;;;;;5033236;28;20030;-77
2022/01/02 03:52:48;;;;;;;13.55;2.65;;;13.10;99.90;;;;;;5032588;28;20022;-78
2022/01/02 03:55:14;;;;;;;14.55;2.45;;;13.10;99.90;;;;;;5032950;28;20132;-77
2022/01/02 03:57:40;;;;;;;8.40;2.25;;;13.10;99.90;;;;;;5032525;28;20038;-77
2022/01/02 04:00:08;;;;;;;13.20;2.42;;;13.20;99.90;;;;;;5032409;28;20041;-77
2022/01/02 04:02:35;;;;;;;10.40;2.50;;;13.20;99.90;;;;;;5034218;28;20512;-77
2022/01/02 04:05:00;;;;;;;9.90;2.22;;;13.20;99.90;;;;;;5037465;28;20361;-77
2022/01/02 04:07:26;;;;;;;10.82;2.08;;;13.20;99.90;;;;;;5036596;28;20087;-77
2022/01/02 04:09:52;;;;;;;10.60;2.08;;;13.20;99.90;;;;;;5036996;28;20083;-77
2022/01/02 04:12:18;;;;;;;10.02;2.30;;;13.30;99.90;;;;;;5036304;28;20052;-77
2022/01/02 04:14:44;;;;;;;11.55;2.40;;;13.30;99.90;;;;;;5036967;28;20057;-77
2022/01/02 04:17:09;;;;;;;11.85;2.40;;;13.30;99.90;;;;;;5036304;28;20469;-77
2022/01/02 04:19:35;;;;;;;11.27;2.28;;;13.30;99.90;;;;;;5037034;28;20029;-77
2022/01/02 04:22:00;;;;;;;11.10;2.00;;;13.30;99.90;;;;;;5036466;28;20038;-77
2022/01/02 04:24:26;;;;;;;9.93;2.20;;;13.40;99.90;;;;;;5036811;28;20457;-76
2022/01/02 04:26:52;;;;;;;11.68;2.70;;;13.30;99.90;;;;;;5036649;28;20060;-76
2022/01/02 04:29:17;;;;;;;9.60;1.83;;;13.40;99.90;;;;;;5036660;28;20025;-76
2022/01/02 04:31:43;;;;;;;9.63;2.00;;;13.40;99.90;;;;;;5038342;28;20079;-75
2022/01/02 04:34:08;;;;;;;11.35;2.13;;;13.30;99.90;;;;;;5045488;28;20108;-76
2022/01/02 04:36:34;;;;;;;14.02;2.03;;;13.40;99.90;;;;;;5036461;28;20099;-76
2022/01/02 04:39:00;;;;;;;9.20;2.13;;;13.40;99.90;;;;;;5036712;28;20017;-76
2022/01/02 04:41:25;;;;;;;9.05;1.70;;;13.40;99.90;;;;;;5036007;28;20428;-76
2022/01/02 04:43:51;;;;;;;10.13;2.38;;;13.40;99.90;;;;;;5036289;28;20079;-77
2022/01/02 04:46:16;;;;;;;12.55;2.90;;;13.30;99.90;;;;;;5036441;28;20029;-79
2022/01/02 04:48:42;;;;;;;18.38;2.72;;;13.30;99.90;;;;;;5036634;28;20034;-77
2022/01/02 04:51:08;;;;;;;11.85;2.78;;;13.30;99.90;;;;;;5036182;28;20026;-77
2022/01/02 04:53:36;;;;;;;11.18;2.75;;;13.20;99.90;;;;;;5036355;28;20044;-77
2022/01/02 04:56:04;;;;;;;11.70;2.60;;;13.20;99.90;;;;;;5035901;28;20037;-77
2022/01/02 04:58:30;;;;;;;8.10;2.60;;;13.10;99.90;;;;;;5036143;28;20468;-77
2022/01/02 05:00:55;;;;;;;14.68;2.70;;;13.10;99.90;;;;;;5036012;28;20105;-76
2022/01/02 05:03:21;;;;;;;11.73;2.50;;;13.00;99.90;;;;;;5036424;28;20021;-77
2022/01/02 05:05:46;;;;;;;11.82;2.83;;;13.00;99.90;;;;;;5035828;28;20469;-77
2022/01/02 05:08:12;;;;;;;12.13;2.70;;;13.00;99.90;;;;;;5035954;28;20035;-77
2022/01/02 05:10:38;;;;;;;10.75;3.05;;;13.00;99.90;;;;;;5035719;28;20030;-77
2022/01/02 05:13:03;;;;;;;9.75;2.40;;;12.90;99.90;;;;;;5035673;28;20060;-76
2022/01/02 05:15:29;;;;;;;10.43;2.80;;;12.90;99.90;;;;;;5035346;28;20104;-76
2022/01/02 05:17:54;;;;;;;9.43;2.63;;;12.80;99.90;;;;;;5035755;28;20116;-76
2022/01/02 05:20:20;;;;;;;10.85;2.83;;;12.80;99.90;;;;;;5035863;28;20033;-76
2022/01/02 05:22:45;;;;;;;13.13;2.58;;;12.80;99.90;;;;;;5035425;28;20385;-76
2022/01/02 05:25:11;;;;;;;15.25;3.38;;;12.80;99.90;;;;;;5036202;28;20049;-76
2022/01/02 05:27:37;;;;;;;12.02;2.88;;;12.80;99.90;;;;;;5035240;28;20424;-76
2022/01/02 05:30:03;;;;;;;9.57;3.00;;;12.80;99.90;;;;;;5041535;28;20055;-77
2022/01/02 05:32:29;;;;;;;10.32;3.35;;;12.80;99.90;;;;;;5037341;28;20053;-77
2022/01/02 05:34:54;;;;;;;9.43;2.75;;;12.70;99.90;;;;;;5035947;28;20030;-78
2022/01/02 05:37:20;;;;;;;9.60;3.33;;;12.70;99.90;;;;;;5034393;28;20094;-76
2022/01/02 05:39:45;;;;;;;9.82;2.72;;;12.70;99.90;;;;;;5035577;28;20033;-76
2022/01/02 05:42:11;;;;;;;11.43;3.25;;;12.70;99.90;;;;;;5035032;28;20037;-76
2022/01/02 05:44:37;;;;;;;12.18;2.88;;;12.70;99.90;;;;;;5035539;28;20018;-76
2022/01/02 05:47:02;;;;;;;12.15;3.38;;;12.70;99.90;;;;;;5035077;28;20026;-76
2022/01/02 05:49:28;;;;;;;12.95;3.38;;;12.60;99.90;;;;;;5035246;28;20024;-77
2022/01/02 05:51:54;;;;;;;11.02;2.92;;;12.60;99.90;;;;;;5034942;28;20033;-76
2022/01/02 05:54:19;;;;;;;9.63;2.90;;;12.60;99.90;;;;;;5034990;28;20457;-76
2022/01/02 05:56:45;;;;;;;11.13;2.63;;;12.60;99.90;;;;;;5034573;28;20029;-76
2022/01/02 05:59:10;;;;;;;12.43;2.95;;;12.60;99.90;;;;;;5035073;28;20456;-76
2022/01/02 06:01:36;;;;;;;11.75;2.88;;;12.60;99.90;;;;;;5034521;28;20045;-76
2022/01/02 06:04:02;;;;;;;12.25;2.90;;;12.60;99.90;;;;;;5034993;28;20083;-76
2022/01/02 06:06:28;;;;;;;8.85;2.78;;;12.60;99.90;;;;;;5034276;28;20030;-76
2022/01/02 06:08:53;;;;;;;8.48;2.70;;;12.60;99.90;;;;;;5034861;28;20052;-76
2022/01/02 06:11:19;;;;;;;9.43;2.95;;;12.60;99.90;;;;;;5034641;28;20484;-76
2022/01/02 06:13:45;;;;;;;7.22;2.65;;;12.60;99.90;;;;;;5034408;28;20040;-76
2022/01/02 06:16:11;;;;;;;13.02;2.78;;;12.60;99.90;;;;;;5034765;28;20534;-76
2022/01/02 06:18:37;;;;;;;10.88;3.15;;;12.50;99.90;;;;;;5034620;28;20033;-76
2022/01/02 06:21:03;;;;;;;8.18;2.40;;;12.50;99.90;;;;;;5034459;28;20500;-76
2022/01/02 06:23:28;;;;;;;15.18;3.17;;;12.50;99.90;;;;;;5034157;28;20123;-76
2022/01/02 06:25:54;;;;;;;7.82;2.88;;;12.50;99.90;;;;;;5038386;28;20029;-77
2022/01/02 06:28:19;;;;;;;13.40;2.58;;;12.50;99.90;;;;;;5039673;28;20033;-75
2022/01/02 06:30:45;;;;;;;7.35;2.55;;;12.50;99.90;;;;;;5034209;28;20473;-76
2022/01/02 06:33:11;;;;;;;10.55;2.55;;;12.50;99.90;;;;;;5033731;28;20477;-75
2022/01/02 06:35:36;;;;;;;8.38;2.35;;;12.60;99.90;;;;;;5033884;28;20108;-76
2022/01/02 06:38:17;;;;;;;10.07;2.72;;;12.60;99.90;;;;;;5033298;28;20068;-75
2022/01/02 06:40:43;;;;;;;10.75;2.58;;;12.60;99.90;;;;;;5033648;28;20428;-75
2022/01/02 06:43:09;;;;;;;13.35;2.78;;;12.60;99.90;;;;;;5034105;28;20033;-76
2022/01/02 06:45:36;;;;;;;10.20;2.50;;;12.60;99.90;;;;;;5034071;28;20025;-76
2022/01/02 06:48:03;;;;;;;11.90;2.85;;;12.60;99.90;;;;;;5033727;28;20032;-76
2022/01/02 06:50:29;;;;;;;10.45;2.72;;;12.60;99.90;;;;;;5033981;28;20060;-75
2022/01/02 06:52:55;;;;;;;8.40;2.75;;;12.60;99.90;;;;;;5033357;28;20037;-76
2022/01/02 06:55:21;;;;;;;10.50;2.22;;;12.60;99.90;;;;;;5033171;28;20048;-74
2022/01/02 06:57:46;;;;;;;9.20;2.38;;;12.60;99.90;;;;;;5033181;28;20021;-75
2022/01/02 07:00:12;;;;;;;7.53;2.50;;;12.60;99.90;;;;;;5033720;28;20461;-75
2022/01/02 07:02:38;;;;;;;10.10;3.10;;;12.60;99.90;;;;;;5032961;28;20091;-75
2022/01/02 07:05:04;;;;;;;6.70;2.55;;;12.60;99.90;;;;;;5033681;28;20025;-75
2022/01/02 07:07:29;;;;;;;8.27;2.13;;;12.60;99.90;;;;;;5033098;28;20104;-75
2022/01/02 07:09:55;;;;;;;8.95;2.40;;;12.60;99.90;;;;;;5033564;28;20473;-75
2022/01/02 07:12:23;;;;;;;6.78;2.20;;;12.60;99.90;;;;;;5032863;28;20029;-78
2022/01/02 07:14:49;;;;;;;9.88;2.15;;;12.60;99.90;;;;;;5033823;28;20033;-78
2022/01/02 07:17:15;;;;;;;8.57;2.50;;;12.60;99.90;;;;;;5033517;28;20065;-79
2022/01/02 07:19:41;;;;;;;7.82;2.75;;;12.60;99.90;;;;;;5033704;28;20102;-78
2022/01/02 07:22:06;;;;;;;6.82;2.15;;;12.60;99.90;;;;;;5032756;28;20060;-77
2022/01/02 07:24:33;;;;;;;8.32;2.35;;;12.60;99.90;;;;;;5041039;28;20033;-78
2022/01/02 07:26:59;;;;;;;6.68;2.13;;;12.60;99.90;;;;;;5033176;28;20036;-76
2022/01/02 07:29:25;;;;;;;9.52;2.13;;;12.60;99.90;;;;;;5032829;28;20037;-76
2022/01/02 07:31:51;;;;;;;12.23;2.30;;;12.60;99.90;;;;;;5033292;28;20096;-77
2022/01/02 07:34:16;;;;;;;5.97;1.98;;;12.60;99.90;;;;;;5032807;28;20402;-77
2022/01/02 07:36:45;;;;;;;10.32;2.22;;;12.60;99.90;;;;;;5032809;28;20041;-77
2022/01/02 07:39:12;;;;;;;7.70;1.95;;;12.60;99.90;;;;;;5032889;28;20484;-77
2022/01/02 07:41:38;;;;;;;9.05;2.03;;;12.60;99.90;;;;;;5033068;28;20042;-77
2022/01/02 07:44:04;;;;;;;9.55;2.55;;;12.60;99.90;;;;;;5033052;28;20056;-78
2022/01/02 07:46:33;;;;;;;12.63;2.17;;;12.60;99.90;;;;;;5032878;28;20469;-78
2022/01/02 07:48:59;;;;;;;10.63;2.67;;;12.60;99.90;;;;;;5033016;28;20029;-77
2022/01/02 07:51:24;;;;;;;9.32;2.50;;;12.60;99.90;;;;;;5032878;28;20221;-78
2022/01/02 07:53:50;;;;;;;9.18;2.38;;;12.60;99.90;;;;;;5032625;28;20434;-77
2022/01/02 07:56:16;;;;;;;6.35;1.73;;;12.50;99.90;;;;;;5033242;28;20025;-77
2022/01/02 07:58:41;;;;;;;7.72;2.42;;;12.50;99.90;;;;;;5032842;28;20095;-77
2022/01/02 08:01:07;;;;;;;8.13;2.17;;;12.50;99.90;;;;;;5032721;28;20026;-77
2022/01/02 08:03:33;;;;;;;9.43;2.08;;;12.50;99.90;;;;;;5032335;28;20048;-77
2022/01/02 08:05:58;;;;;;;8.00;2.25;;;12.50;99.90;;;;;;5031128;28;20040;-78
2022/01/02 08:08:24;;;;;;;8.10;2.65;;;12.60;99.90;;;;;;5032694;28;20095;-76
2022/01/02 08:10:49;;;;;;;7.47;1.85;;;12.60;99.90;;;;;;5032328;28;20060;-76
2022/01/02 08:13:15;;;;;;;8.77;2.70;;;12.60;99.90;;;;;;5032784;28;20029;-76
2022/01/02 08:15:41;;;;;;;9.30;2.53;;;12.70;99.90;;;;;;5032585;28;20056;-76
2022/01/02 08:18:06;;;;;;;8.38;2.35;;;12.70;99.90;;;;;;5024304;28;20037;-77
2022/01/02 08:20:32;;;;;;;8.02;2.22;;;12.70;99.90;;;;;;5032507;28;20108;-77
2022/01/02 08:22:58;;;;;;;10.00;2.03;;;12.70;99.90;;;;;;5032021;28;20067;-77
2022/01/02 08:25:24;;;;;;;8.07;2.25;;;12.60;99.90;;;;;;5030751;28;20483;-77
2022/01/02 08:27:50;;;;;;;9.75;2.80;;;12.60;99.90;;;;;;5028681;28;20034;-77
2022/01/02 08:30:15;;;;;;;8.77;2.20;;;12.70;99.90;;;;;;5031016;28;20029;-77
2022/01/02 08:32:41;;;;;;;10.07;2.58;;;12.70;99.90;;;;;;5031232;28;20025;-78
2022/01/02 08:35:07;;;;;;;11.60;2.45;;;12.70;99.90;;;;;;5027984;28;20063;-79
2022/01/02 08:37:32;;;;;;;6.60;2.53;;;12.70;99.90;;;;;;5031514;28;20036;-81
2022/01/02 08:39:58;;;;;;;7.57;2.03;;;12.60;99.90;;;;;;5025523;28;20476;-78
2022/01/02 08:42:24;;;;;;;7.03;2.40;;;12.70;99.90;;;;;;5025784;28;20045;-78
2022/01/02 08:44:49;;;;;;;7.60;2.20;;;12.60;99.90;;;;;;5016758;28;20026;-79
2022/01/02 08:47:15;;;;;;;10.95;2.28;;;12.70;99.90;;;;;;5023176;28;20116;-80
2022/01/02 08:49:42;;;;;;;7.50;2.10;;;12.60;99.90;;;;;;5025325;28;20377;-77
2022/01/02 08:52:07;;;;;;;6.35;2.20;;;12.60;99.90;;;;;;5028528;28;20025;-78
2022/01/02 08:54:33;;;;;;;8.75;2.97;;;12.60;99.90;;;;;;5027743;28;20045;-77
2022/01/02 08:56:59;;;;;;;10.85;2.85;;;12.60;99.90;;;;;;5025892;28;20037;-77
2022/01/02 08:59:27;;;;;;;6.93;2.20;;;12.60;99.90;;;;;;5021996;28;20056;-79
2022/01/02 09:01:54;;;;;;;6.18;1.63;;;12.60;99.90;;;;;;5027424;28;20040;-78
2022/01/02 09:04:20;;;;;;;7.85;2.30;;;12.50;99.90;;;;;;5027169;28;20033;-77
2022/01/02 09:06:46;;;;;;;5.90;2.00;;;12.50;99.90;;;;;;5027130;28;20022;-76
2022/01/02 09:09:12;;;;;;;5.72;2.20;;;12.50;99.90;;;;;;5033102;28;20048;-75
2022/01/02 09:11:37;;;;;;;6.60;1.77;;;12.50;99.90;;;;;;5032155;28;20040;-74
2022/01/02 09:14:03;;;;;;;5.75;1.77;;;12.50;99.90;;;;;;5032261;28;20037;-74
2022/01/02 09:16:33;;;;;;;6.63;2.40;;;12.60;99.90;;;;;;5034239;28;20049;-75
2022/01/02 09:18:59;;;;;;;6.53;1.80;;;12.60;99.90;;;;;;5034820;28;20071;-79
2022/01/02 09:21:25;;;;;;;6.70;2.28;;;12.50;99.90;;;;;;5035118;28;20228;-76
2022/01/02 09:23:50;;;;;;;5.85;1.95;;;12.50;99.90;;;;;;5035871;28;20029;-77
2022/01/02 09:26:16;;;;;;;8.40;1.80;;;12.50;99.90;;;;;;5035006;28;20087;-77
2022/01/02 09:28:41;;;;;;;6.68;1.70;;;12.50;99.90;;;;;;5035135;28;20116;-77
2022/01/02 09:31:07;;;;;;;6.22;1.80;;;12.50;99.90;;;;;;5033763;28;20029;-77
2022/01/02 09:33:33;;;;;;;5.20;2.10;;;12.50;99.90;;;;;;5034054;28;20096;-78
2022/01/02 09:35:59;;;;;;;7.40;2.70;;;12.60;99.90;;;;;;5033425;28;20079;-80
2022/01/02 09:38:25;;;;;;;11.13;2.00;;;12.60;99.90;;;;;;5034063;28;20511;-78
2022/01/02 09:40:51;;;;;;;6.00;2.15;;;12.70;99.90;;;;;;5032385;28;20120;-80
2022/01/02 09:43:18;;;;;;;4.65;1.90;;;12.70;99.90;;;;;;5034325;28;20026;-83
2022/01/02 09:45:48;;;;;;;6.53;2.55;;;12.70;99.90;;;;;;5033239;28;20108;-82
2022/01/02 09:48:14;;;;;;;9.75;2.78;;;12.70;99.90;;;;;;5033885;28;20029;-77
2022/01/02 09:50:41;;;;;;;3.03;1.95;;;12.80;99.90;;;;;;5032961;28;20026;-78
2022/01/02 09:53:08;;;;;;;5.57;1.83;;;12.70;99.90;;;;;;5033845;28;20049;-78
2022/01/02 09:55:34;;;;;;;5.85;2.15;;;12.70;99.90;;;;;;5033297;28;20080;-81
2022/01/02 09:58:00;;;;;;;6.72;2.70;;;12.70;99.90;;;;;;5033857;28;20036;-79
2022/01/02 10:00:27;;;;;;;7.28;2.22;;;12.70;99.90;;;;;;5032072;28;20033;-79
2022/01/02 10:02:59;;;;;;;7.85;2.67;;;12.70;99.90;;;;;;5032968;28;20034;-77
2022/01/02 10:05:26;;;;;;;6.45;2.70;;;12.70;99.90;;;;;;5034627;28;20053;-77
2022/01/02 10:07:53;;;;;;;6.30;2.78;;;12.80;99.90;;;;;;5035018;28;20034;-78
2022/01/02 10:10:19;;;;;;;7.18;2.22;;;12.80;99.90;;;;;;5033918;28;20028;-78
2022/01/02 10:12:46;;;;;;;6.07;2.38;;;12.80;99.90;;;;;;5034593;28;20033;-80
2022/01/02 10:15:16;;;;;;;7.15;2.75;;;12.80;99.90;;;;;;5034486;28;20026;-79
2022/01/02 10:18:07;;;;;;;5.93;2.92;;;12.90;99.90;;;;;;5034513;28;20030;-80
2022/01/02 10:20:41;;;;;;;8.05;2.67;;;13.00;99.90;;;;;;5033942;28;20389;-80
2022/01/02 10:23:10;;;;;;;6.10;2.80;;;13.10;99.90;;;;;;5034430;28;20052;-79
2022/01/02 10:25:57;;;;;;;6.90;2.67;;;13.20;99.90;;;;;;5033822;28;20029;-78
2022/01/02 10:28:34;;;;;;;6.80;2.55;;;13.20;99.90;;;;;;5034408;28;20499;-80
2022/01/02 10:31:06;;;;;;;7.13;3.28;;;13.20;99.70;;;;;;5033814;28;20039;-78
2022/01/02 10:34:04;;;;;;;5.53;3.00;;;13.10;99.60;;;;;;5034253;28;20060;-78
2022/01/02 10:36:34;;;;;;;4.60;2.85;;;13.10;99.80;;;;;;5030546;28;20037;-77
2022/01/02 10:39:18;;;;;;;8.20;3.47;;;13.00;99.70;;;;;;5034063;28;20029;-74
2022/01/02 10:41:49;;;;;;;7.25;3.33;;;13.00;99.90;;;;;;5033817;28;20384;-76
2022/01/02 10:44:25;;;;;;;8.98;3.55;;;13.00;99.90;;;;;;5033838;28;20065;-77
2022/01/02 10:47:15;;;;;;;11.35;3.22;;;13.10;99.90;;;;;;5033909;28;20100;-77
2022/01/02 10:50:07;;;;;;;7.45;3.35;;;13.10;99.90;;;;;;5034026;28;20030;-78
2022/01/02 10:52:41;;;;;;;11.02;3.78;;;13.10;99.90;;;;;;5033245;28;20029;-75
2022/01/02 10:55:21;;;;;;;7.60;3.38;;;13.10;99.90;;;;;;5033425;28;20041;-77
2022/01/02 10:57:49;;;;;;;11.63;3.90;;;13.00;99.90;;;;;;5032589;28;20025;-76
2022/01/02 11:00:20;;;;;;;6.45;3.28;;;13.10;99.90;;;;;;5033116;28;20037;-74
2022/01/02 11:02:46;;;;;;;11.77;3.53;;;13.00;99.90;;;;;;5032739;28;20129;-74
2022/01/02 11:05:17;;;;;;;11.25;3.15;;;13.00;99.90;;;;;;5029819;28;20116;-74
2022/01/02 11:07:47;;;;;;;7.05;3.22;;;13.00;99.90;;;;;;5030948;28;20033;-74
2022/01/02 11:10:15;;;;;;;7.60;3.20;;;13.00;99.90;;;;;;5033177;28;20043;-73
2022/01/02 11:12:42;;;;;;;10.25;3.20;;;13.00;99.90;;;;;;5033005;28;20026;-73
2022/01/02 11:15:10;;;;;;;13.68;3.65;;;13.00;99.90;;;;;;5033133;28;20025;-74
2022/01/02 11:17:36;;;;;;;8.45;3.65;;;13.00;99.90;;;;;;5033206;28;20036;-74
2022/01/02 11:20:07;;;;;;;13.55;3.45;;;13.00;99.90;;;;;;5033367;28;20065;-76
2022/01/02 11:22:40;;;;;;;11.20;3.90;;;13.00;99.90;;;;;;5032897;28;20042;-76
2022/01/02 11:25:20;;;;;;;8.13;3.00;;;13.00;99.90;;;;;;5032774;28;20112;-77
2022/01/02 11:28:02;;;;;;;10.20;3.20;;;13.00;99.90;;;;;;5032113;28;20040;-77
2022/01/02 11:30:33;;;;;;;7.95;2.97;;;13.00;99.90;;;;;;5032070;28;20473;-76
2022/01/02 11:33:08;;;;;;;11.60;3.47;;;13.00;99.90;;;;;;5032770;28;20029;-76
2022/01/02 11:35:36;;;;;;;11.18;3.47;;;13.00;99.90;;;;;;5032793;28;20019;-83
2022/01/02 11:38:03;;;;;;;10.15;3.00;;;13.00;99.90;;;;;;5033382;28;20371;-76
2022/01/02 11:40:53;;;;;;;9.35;2.80;;;13.10;99.90;;;;;;5032509;28;20418;-76
2022/01/02 11:43:38;;;;;;;9.38;2.67;;;13.10;99.90;;;;;;5030894;28;20440;-74
2022/01/02 11:46:20;;;;;;;10.00;2.88;;;13.00;99.90;;;;;;5014384;28;20026;-74
2022/01/02 11:49:15;;;;;;;11.68;2.80;;;13.00;99.90;;;;;;5011691;28;20606;-77
2022/01/02 11:51:47;;;;;;;9.18;2.67;;;13.10;99.90;;;;;;5014388;28;20104;-79
2022/01/02 11:54:28;;;;;;;15.68;2.80;;;13.10;99.90;;;;;;5011916;28;20068;-75
2022/01/02 11:56:55;;;;;;;9.40;3.03;;;13.10;99.90;;;;;;5026431;28;20058;-78
2022/01/02 11:59:39;;;;;;;7.43;2.75;;;13.10;99.90;;;;;;5032807;28;20040;-74
2022/01/02 12:02:13;;;;;;;13.57;2.72;;;13.10;99.90;;;;;;5032550;28;20065;-75
2022/01/02 12:07:35;;;;;;;13.32;2.20;;;13.10;99.90;;;;;;5033388;28;20560;-73
2022/01/02 12:10:22;;;;;;;7.75;2.40;;;13.20;99.90;;;;;;5032616;28;20465;-75
2022/01/02 12:13:05;;;;;;;12.30;3.38;;;13.20;99.90;;;;;;5032301;28;20036;-73
2022/01/02 12:15:34;;;;;;;9.60;2.55;;;13.20;99.90;;;;;;5032115;28;20033;-73
2022/01/02 12:18:16;;;;;;;12.90;3.10;;;13.20;99.90;;;;;;5032626;28;20041;-72
2022/01/02 12:20:51;;;;;;;11.45;2.85;;;13.20;99.90;;;;;;5032389;28;20026;-72
2022/01/02 12:23:40;;;;;;;13.00;2.40;;;13.20;99.90;;;;;;5033900;28;20049;-77
2022/01/02 12:26:22;;;;;;;11.55;2.55;;;13.20;99.90;;;;;;5036458;28;20029;-75
2022/01/02 12:28:56;;;;;;;9.85;2.40;;;13.20;99.90;;;;;;5036567;28;20056;-74
2022/01/02 12:31:26;;;;;;;17.05;2.67;;;13.10;99.90;;;;;;5036357;28;20030;-73
2022/01/02 12:33:52;;;;;;;8.68;2.72;;;13.20;99.90;;;;;;5035487;28;20033;-73
2022/01/02 12:36:20;;;;;;;11.80;3.20;;;13.20;99.90;;;;;;5036080;28;20041;-71
2022/01/02 12:39:00;;;;;;;14.20;2.80;;;13.20;99.90;;;;;;5036312;28;20034;-73
2022/01/02 12:41:31;;;;;;;15.38;3.05;;;13.30;99.90;;;;;;5036177;28;20056;-73
2022/01/02 12:43:59;;;;;;;8.88;2.65;;;13.30;99.90;;;;;;5036287;28;20032;-73
2022/01/02 12:46:50;;;;;;;9.48;2.63;;;13.30;99.90;;;;;;5035566;28;20029;-74
2022/01/02 12:49:21;;;;;;;10.10;2.63;;;13.30;99.90;;;;;;5036413;28;20026;-73
2022/01/02 12:51:52;;;;;;;13.93;2.78;;;13.30;99.90;;;;;;5036031;28;20051;-73
2022/01/02 12:54:21;;;;;;;13.57;2.67;;;13.30;99.90;;;;;;5035769;28;20044;-73
2022/01/02 12:56:51;;;;;;;11.27;2.90;;;13.30;99.90;;;;;;5035514;28;20539;-74
2022/01/02 12:59:17;;;;;;;12.48;2.97;;;13.30;99.90;;;;;;5036038;28;20029;-75
2022/01/02 13:01:50;;;;;;;12.50;2.55;;;13.30;99.90;;;;;;5035455;28;20416;-75
2022/01/02 13:04:17;;;;;;;11.93;3.08;;;13.30;99.90;;;;;;5036151;28;20033;-75